Time;durP1;ratioP1;P1;durP2;ratioP2;P2;SDS_P1;SDS_P2;PMS_P1;PMS_P2;Temp;Humidity;BMP_temperature;BMP_pressure;BME280_temperature;BME280_humidity;BME280_pressure;Samples;Min_cycle;Max_cycle;Signal;HPM_P1;HPM_P2
2024/01/20 00:00:53;;;;;;;10.23;9.10;;;;;;;;;;6119331;23;20021;-82
2024/01/20 00:03:20;;;;;;;12.95;9.48;;;;;;;;;;6121661;23;20028;-81
2024/01/20 00:05:47;;;;;;;13.48;10.45;;;;;;;;;;6121213;23;20378;-82
2024/01/20 00:08:14;;;;;;;15.20;9.73;;;;;;;;;;6121710;23;20347;-82
2024/01/20 00:10:42;;;;;;;12.10;10.25;;;;;;;;;;6144777;23;20032;-82
2024/01/20 00:13:09;;;;;;;17.90;11.25;;;;;;;;;;6171395;23;20654;-82
2024/01/20 00:15:36;;;;;;;17.60;11.57;;;;;;;;;;6146237;23;20348;-82
2024/01/20 00:18:04;;;;;;;21.60;12.00;;;;;;;;;;6122855;23;20017;-82
2024/01/20 00:20:32;;;;;;;15.90;11.77;;;;;;;;;;6147860;23;20748;-82
2024/01/20 00:22:59;;;;;;;15.80;12.10;;;;;;;;;;6148343;23;20091;-81
2024/01/20 00:25:27;;;;;;;18.70;12.25;;;;;;;;;;6173675;23;20084;-81
2024/01/20 00:27:54;;;;;;;17.27;12.20;;;;;;;;;;6170432;23;20020;-81
2024/01/20 00:30:21;;;;;;;15.35;12.75;;;;;;;;;;6124513;23;20028;-81
2024/01/20 00:32:49;;;;;;;21.05;13.85;;;;;;;;;;6121533;23;20568;-82
2024/01/20 00:35:17;;;;;;;14.25;12.75;;;;;;;;;;6173651;23;20013;-82
2024/01/20 00:37:44;;;;;;;15.77;13.65;;;;;;;;;;6119583;23;20590;-82
2024/01/20 00:40:11;;;;;;;18.25;13.77;;;;;;;;;;6123215;23;20028;-82
2024/01/20 00:42:39;;;;;;;16.38;13.55;;;;;;;;;;6170024;23;20072;-82
2024/01/20 00:45:07;;;;;;;15.77;13.38;;;;;;;;;;6149963;23;20013;-82
2024/01/20 00:47:35;;;;;;;20.13;14.25;;;;;;;;;;6171755;23;20045;-82
2024/01/20 00:50:04;;;;;;;19.55;14.18;;;;;;;;;;6138777;23;20446;-82
2024/01/20 00:52:32;;;;;;;18.25;14.90;;;;;;;;;;6125122;23;20017;-81
2024/01/20 00:55:00;;;;;;;16.00;13.95;;;;;;;;;;6125049;23;20017;-82
2024/01/20 00:57:27;;;;;;;19.17;15.13;;;;;;;;;;6124642;23;20430;-82
2024/01/20 00:59:55;;;;;;;19.10;15.13;;;;;;;;;;6170590;23;20027;-81
2024/01/20 01:02:24;;;;;;;19.20;14.55;;;;;;;;;;6123345;23;20119;-82
2024/01/20 01:04:51;;;;;;;20.13;15.80;;;;;;;;;;6147152;23;20020;-81
2024/01/20 01:07:18;;;;;;;20.92;16.20;;;;;;;;;;6123574;23;20017;-81
2024/01/20 01:09:46;;;;;;;27.17;16.45;;;;;;;;;;6121494;23;20399;-81
2024/01/20 01:12:12;;;;;;;18.13;15.30;;;;;;;;;;6122616;23;20196;-81
2024/01/20 01:14:39;;;;;;;18.40;15.43;;;;;;;;;;6144044;23;20345;-81
2024/01/20 01:17:06;;;;;;;17.65;15.68;;;;;;;;;;6147391;23;20013;-81
2024/01/20 01:19:34;;;;;;;19.73;16.70;;;;;;;;;;6120876;23;20099;-81
2024/01/20 01:22:01;;;;;;;23.60;17.58;;;;;;;;;;6122694;23;20033;-81
2024/01/20 01:24:28;;;;;;;21.25;16.10;;;;;;;;;;6123776;23;20025;-81
2024/01/20 01:26:55;;;;;;;20.95;17.08;;;;;;;;;;6121018;23;20024;-81
2024/01/20 01:29:23;;;;;;;21.30;17.23;;;;;;;;;;6148022;23;20028;-81
2024/01/20 01:31:50;;;;;;;23.35;17.23;;;;;;;;;;6169568;23;20021;-81
2024/01/20 01:34:17;;;;;;;25.80;17.42;;;;;;;;;;6121650;23;20101;-81
2024/01/20 01:36:44;;;;;;;23.38;17.38;;;;;;;;;;6122301;23;20021;-81
2024/01/20 01:39:11;;;;;;;22.65;16.88;;;;;;;;;;6123228;23;20024;-81
2024/01/20 01:41:39;;;;;;;24.80;18.25;;;;;;;;;;6120588;23;20075;-81
2024/01/20 01:44:06;;;;;;;24.15;17.63;;;;;;;;;;6148365;23;20024;-81
2024/01/20 01:46:34;;;;;;;25.20;18.15;;;;;;;;;;6122736;23;20017;-81
2024/01/20 01:49:02;;;;;;;26.23;17.02;;;;;;;;;;6124264;23;20023;-81
2024/01/20 01:51:29;;;;;;;26.13;18.73;;;;;;;;;;6125096;23;20017;-81
2024/01/20 01:53:57;;;;;;;24.95;17.55;;;;;;;;;;6146975;23;20017;-81
2024/01/20 01:56:24;;;;;;;28.42;18.40;;;;;;;;;;6148214;23;20035;-81
2024/01/20 01:58:51;;;;;;;25.73;18.27;;;;;;;;;;6144575;23;20071;-81
2024/01/20 02:01:18;;;;;;;25.65;18.70;;;;;;;;;;6146429;23;20035;-81
2024/01/20 02:03:46;;;;;;;22.65;19.15;;;;;;;;;;6117664;23;20111;-81
2024/01/20 02:06:13;;;;;;;25.90;19.52;;;;;;;;;;6145824;23;20020;-81
2024/01/20 02:08:41;;;;;;;23.40;17.80;;;;;;;;;;6167209;23;20442;-81
2024/01/20 02:11:08;;;;;;;23.98;19.20;;;;;;;;;;6147228;23;20021;-82
2024/01/20 02:13:35;;;;;;;25.88;18.45;;;;;;;;;;6119554;23;20399;-82
2024/01/20 02:16:03;;;;;;;21.58;17.58;;;;;;;;;;6146718;23;20036;-81
2024/01/20 02:18:30;;;;;;;27.33;18.58;;;;;;;;;;6145644;23;20051;-81
2024/01/20 02:20:57;;;;;;;22.92;18.67;;;;;;;;;;6144940;23;20056;-81
2024/01/20 02:23:25;;;;;;;27.02;18.77;;;;;;;;;;6146900;23;20023;-81
2024/01/20 02:25:52;;;;;;;25.30;18.60;;;;;;;;;;6118457;23;20025;-81
2024/01/20 02:28:21;;;;;;;27.13;18.38;;;;;;;;;;6170399;23;20017;-81
2024/01/20 02:30:49;;;;;;;33.08;19.90;;;;;;;;;;6146210;23;20021;-81
2024/01/20 02:33:17;;;;;;;25.50;19.10;;;;;;;;;;6146522;23;20016;-81
2024/01/20 02:35:44;;;;;;;26.20;19.05;;;;;;;;;;6144763;23;20438;-81
2024/01/20 02:38:11;;;;;;;27.58;19.20;;;;;;;;;;6123146;23;20847;-81
2024/01/20 02:40:39;;;;;;;26.63;21.33;;;;;;;;;;6145195;23;20473;-81
2024/01/20 02:43:06;;;;;;;28.42;21.10;;;;;;;;;;6122281;23;20080;-81
2024/01/20 02:45:34;;;;;;;28.02;20.95;;;;;;;;;;6122634;23;20025;-81
2024/01/20 02:48:01;;;;;;;25.55;20.75;;;;;;;;;;6119046;23;20017;-81
2024/01/20 02:50:28;;;;;;;25.00;21.00;;;;;;;;;;6123117;23;20028;-81
2024/01/20 02:52:55;;;;;;;24.60;20.70;;;;;;;;;;6122561;23;20029;-81
2024/01/20 02:55:22;;;;;;;28.55;21.20;;;;;;;;;;6148238;23;20437;-81
2024/01/20 02:57:50;;;;;;;29.63;21.70;;;;;;;;;;6120748;23;20076;-81
2024/01/20 03:00:17;;;;;;;27.50;20.80;;;;;;;;;;6148757;23;20396;-81
2024/01/20 03:02:43;;;;;;;30.95;21.90;;;;;;;;;;6144319;23;20327;-81
2024/01/20 03:05:11;;;;;;;30.05;22.90;;;;;;;;;;6146167;23;20025;-81
2024/01/20 03:07:38;;;;;;;30.95;22.48;;;;;;;;;;6144392;23;20084;-81
2024/01/20 03:10:05;;;;;;;29.65;21.92;;;;;;;;;;6145906;23;20021;-81
2024/01/20 03:12:34;;;;;;;30.60;21.52;;;;;;;;;;6144659;23;20024;-81
2024/01/20 03:15:01;;;;;;;32.30;22.42;;;;;;;;;;6123790;23;20017;-81
2024/01/20 03:17:29;;;;;;;27.63;20.75;;;;;;;;;;6145858;23;20026;-81
2024/01/20 03:19:56;;;;;;;31.08;22.25;;;;;;;;;;6143749;23;20052;-81
2024/01/20 03:22:23;;;;;;;27.33;21.92;;;;;;;;;;6121835;23;20025;-81
2024/01/20 03:24:50;;;;;;;29.77;23.35;;;;;;;;;;6117087;23;20044;-81
2024/01/20 03:27:21;;;;;;;28.08;21.80;;;;;;;;;;6121417;23;20039;-81
2024/01/20 03:29:50;;;;;;;31.02;22.15;;;;;;;;;;6143843;23;20418;-81
2024/01/20 03:32:17;;;;;;;29.05;22.42;;;;;;;;;;6123469;23;20487;-81
2024/01/20 03:34:45;;;;;;;29.33;23.23;;;;;;;;;;6119251;23;20020;-81
2024/01/20 03:37:12;;;;;;;30.20;22.73;;;;;;;;;;6147329;23;20020;-81
2024/01/20 03:39:38;;;;;;;27.60;22.00;;;;;;;;;;6170418;23;20099;-82
2024/01/20 03:42:05;;;;;;;29.90;22.95;;;;;;;;;;6152899;23;20044;-81
2024/01/20 03:44:34;;;;;;;29.33;22.52;;;;;;;;;;6152019;23;20028;-81
2024/01/20 03:47:01;;;;;;;29.10;22.15;;;;;;;;;;6126578;23;20520;-81
2024/01/20 03:49:29;;;;;;;29.98;21.15;;;;;;;;;;6127587;23;20098;-81
2024/01/20 03:51:56;;;;;;;31.38;22.77;;;;;;;;;;6148843;23;20017;-81
2024/01/20 03:54:23;;;;;;;30.35;22.63;;;;;;;;;;6125916;23;20013;-81
2024/01/20 03:56:50;;;;;;;34.03;22.60;;;;;;;;;;6125009;23;20151;-81
2024/01/20 03:59:17;;;;;;;30.70;21.65;;;;;;;;;;6174471;23;20440;-81
2024/01/20 04:01:45;;;;;;;34.47;23.63;;;;;;;;;;6123905;23;20021;-81
2024/01/20 04:04:12;;;;;;;30.42;22.20;;;;;;;;;;6125627;23;20088;-81
2024/01/20 04:06:39;;;;;;;32.78;23.00;;;;;;;;;;6124374;23;20331;-81
2024/01/20 04:09:06;;;;;;;28.58;21.98;;;;;;;;;;6126124;23;20392;-81
2024/01/20 04:11:34;;;;;;;33.55;22.92;;;;;;;;;;6174940;23;20027;-81
2024/01/20 04:14:02;;;;;;;31.08;22.42;;;;;;;;;;6151664;23;20023;-81
2024/01/20 04:16:30;;;;;;;30.08;21.75;;;;;;;;;;6149791;23;20039;-82
2024/01/20 04:18:57;;;;;;;33.10;22.75;;;;;;;;;;6124145;23;20016;-82
2024/01/20 04:21:24;;;;;;;32.17;22.40;;;;;;;;;;6175083;23;20064;-82
2024/01/20 04:23:52;;;;;;;32.25;22.58;;;;;;;;;;6147486;23;20050;-82
2024/01/20 04:26:19;;;;;;;30.25;21.60;;;;;;;;;;6151752;23;20012;-81
2024/01/20 04:28:46;;;;;;;31.67;22.33;;;;;;;;;;6146965;23;20013;-81
2024/01/20 04:31:13;;;;;;;35.10;22.17;;;;;;;;;;6126633;23;20346;-81
2024/01/20 04:33:40;;;;;;;31.77;22.30;;;;;;;;;;6123976;23;20020;-82
2024/01/20 04:36:07;;;;;;;31.35;23.67;;;;;;;;;;6151708;23;20087;-81
2024/01/20 04:38:35;;;;;;;33.25;22.40;;;;;;;;;;6123553;23;20021;-81
2024/01/20 04:41:01;;;;;;;28.02;21.30;;;;;;;;;;6125081;23;20096;-81
2024/01/20 04:43:29;;;;;;;32.25;21.63;;;;;;;;;;6127132;23;20020;-81
2024/01/20 04:45:56;;;;;;;36.28;23.48;;;;;;;;;;6150345;23;20028;-81
2024/01/20 04:48:23;;;;;;;33.55;22.25;;;;;;;;;;6123416;23;20016;-81
2024/01/20 04:50:51;;;;;;;31.38;22.27;;;;;;;;;;6148168;23;20024;-81
2024/01/20 04:53:18;;;;;;;35.17;22.52;;;;;;;;;;6125854;23;20017;-81
2024/01/20 04:55:45;;;;;;;33.05;22.67;;;;;;;;;;6173104;23;20120;-81
2024/01/20 04:58:12;;;;;;;34.28;22.77;;;;;;;;;;6150001;23;20013;-81
2024/01/20 05:00:39;;;;;;;38.25;25.02;;;;;;;;;;6124131;23;20820;-81
2024/01/20 05:03:06;;;;;;;36.15;24.52;;;;;;;;;;6128890;23;20016;-81
2024/01/20 05:05:34;;;;;;;39.70;23.52;;;;;;;;;;6175710;23;20044;-81
2024/01/20 05:08:02;;;;;;;37.72;23.23;;;;;;;;;;6152411;23;20090;-81
2024/01/20 05:10:29;;;;;;;41.28;24.42;;;;;;;;;;6154204;23;20100;-81
2024/01/20 05:12:56;;;;;;;41.67;24.95;;;;;;;;;;6124477;23;20023;-81
2024/01/20 05:15:23;;;;;;;39.03;24.42;;;;;;;;;;6128311;23;20036;-81
2024/01/20 05:17:51;;;;;;;38.90;24.27;;;;;;;;;;6124730;23;20441;-81
2024/01/20 05:20:18;;;;;;;42.72;24.75;;;;;;;;;;6127971;23;20012;-81
2024/01/20 05:22:45;;;;;;;39.72;23.83;;;;;;;;;;6150277;23;20020;-81
2024/01/20 05:25:12;;;;;;;42.05;24.52;;;;;;;;;;6152513;23;20048;-81
2024/01/20 05:27:39;;;;;;;41.33;24.80;;;;;;;;;;6149621;23;20016;-81
2024/01/20 05:30:07;;;;;;;42.97;25.25;;;;;;;;;;6179248;23;20024;-81
2024/01/20 05:32:35;;;;;;;43.85;25.05;;;;;;;;;;6152376;23;20023;-81
2024/01/20 05:35:02;;;;;;;38.95;24.30;;;;;;;;;;6155244;23;20440;-81
2024/01/20 05:37:30;;;;;;;38.38;23.58;;;;;;;;;;6129811;23;20026;-81
2024/01/20 05:39:57;;;;;;;44.88;25.35;;;;;;;;;;6150515;23;20439;-81
2024/01/20 05:42:24;;;;;;;43.47;25.02;;;;;;;;;;6129434;23;20472;-81
2024/01/20 05:44:52;;;;;;;46.63;26.20;;;;;;;;;;6125059;23;20040;-81
2024/01/20 05:47:19;;;;;;;45.00;26.40;;;;;;;;;;6153069;23;20020;-81
2024/01/20 05:49:46;;;;;;;48.03;26.15;;;;;;;;;;6150306;23;20027;-81
2024/01/20 05:52:13;;;;;;;47.05;25.13;;;;;;;;;;6126444;23;20035;-81
2024/01/20 05:54:40;;;;;;;42.42;23.85;;;;;;;;;;6149728;23;20346;-81
2024/01/20 05:57:08;;;;;;;44.85;25.92;;;;;;;;;;6175492;23;20020;-81
2024/01/20 05:59:35;;;;;;;42.13;24.10;;;;;;;;;;6148609;23;20028;-81
2024/01/20 06:02:03;;;;;;;42.78;25.58;;;;;;;;;;6149638;23;20091;-81
2024/01/20 06:04:30;;;;;;;40.33;25.25;;;;;;;;;;6148471;23;20458;-81
2024/01/20 06:06:57;;;;;;;46.78;26.58;;;;;;;;;;6147221;23;20074;-81
2024/01/20 06:09:24;;;;;;;48.95;25.40;;;;;;;;;;6124026;23;20016;-81
2024/01/20 06:11:51;;;;;;;42.95;24.38;;;;;;;;;;6123217;23;20009;-81
2024/01/20 06:14:18;;;;;;;47.15;26.00;;;;;;;;;;6150087;23;20017;-81
2024/01/20 06:16:46;;;;;;;51.40;25.55;;;;;;;;;;6146187;23;20083;-81
2024/01/20 06:19:14;;;;;;;45.60;25.17;;;;;;;;;;6124739;23;20027;-81
2024/01/20 06:21:41;;;;;;;49.17;26.05;;;;;;;;;;6122594;23;20040;-81
2024/01/20 06:24:08;;;;;;;44.55;25.83;;;;;;;;;;6148278;23;20012;-81
2024/01/20 06:26:35;;;;;;;46.05;25.05;;;;;;;;;;6121863;23;20020;-81
2024/01/20 06:29:03;;;;;;;41.47;24.02;;;;;;;;;;6149271;23;20020;-80
2024/01/20 06:31:31;;;;;;;48.40;25.20;;;;;;;;;;6124730;23;20670;-81
2024/01/20 06:33:59;;;;;;;45.75;25.42;;;;;;;;;;6123449;23;20021;-81
2024/01/20 06:36:26;;;;;;;55.60;26.57;;;;;;;;;;6174107;23;20012;-81
2024/01/20 06:38:54;;;;;;;45.72;26.25;;;;;;;;;;6122547;23;20039;-81
2024/01/20 06:41:20;;;;;;;42.45;24.02;;;;;;;;;;6125925;23;20154;-81
2024/01/20 06:43:47;;;;;;;42.67;24.10;;;;;;;;;;6147971;23;20021;-81
2024/01/20 06:46:15;;;;;;;46.13;25.00;;;;;;;;;;6127101;23;20687;-80
2024/01/20 06:48:42;;;;;;;48.47;25.02;;;;;;;;;;6145691;23;20039;-80
2024/01/20 06:51:14;;;;;;;46.22;24.02;;;;;;;;;;6123581;23;20032;-81
2024/01/20 06:53:45;;;;;;;44.60;24.13;;;;;;;;;;6148926;23;20016;-81
2024/01/20 06:56:12;;;;;;;45.53;24.48;;;;;;;;;;6150331;23;20020;-81
2024/01/20 06:58:39;;;;;;;46.00;24.63;;;;;;;;;;6146664;23;20275;-81
2024/01/20 07:01:06;;;;;;;42.08;22.85;;;;;;;;;;6147717;23;20385;-80
2024/01/20 07:03:34;;;;;;;49.50;25.73;;;;;;;;;;6198298;23;20076;-81
2024/01/20 07:06:01;;;;;;;48.05;23.88;;;;;;;;;;6148210;23;20515;-81
2024/01/20 07:08:29;;;;;;;44.15;24.27;;;;;;;;;;6148685;23;20761;-81
2024/01/20 07:10:56;;;;;;;47.92;25.40;;;;;;;;;;6168405;23;20640;-81
2024/01/20 07:13:23;;;;;;;40.92;23.63;;;;;;;;;;6172827;23;20013;-82
2024/01/20 07:15:50;;;;;;;46.40;23.95;;;;;;;;;;6171755;23;20020;-83
2024/01/20 07:18:17;;;;;;;44.83;24.15;;;;;;;;;;6197052;23;20468;-83
2024/01/20 07:20:44;;;;;;;50.65;26.38;;;;;;;;;;6147913;23;20020;-83
2024/01/20 07:23:12;;;;;;;49.97;26.40;;;;;;;;;;6125698;23;20605;-82
2024/01/20 07:25:39;;;;;;;46.50;25.08;;;;;;;;;;6147480;23;20024;-82
2024/01/20 07:28:06;;;;;;;42.65;24.10;;;;;;;;;;6148557;23;20503;-83
2024/01/20 07:30:34;;;;;;;43.65;23.52;;;;;;;;;;6147625;23;20024;-84
2024/01/20 07:33:01;;;;;;;41.35;23.73;;;;;;;;;;6148775;23;20020;-83
2024/01/20 07:35:28;;;;;;;48.78;23.90;;;;;;;;;;6150664;23;20027;-84
2024/01/20 07:37:56;;;;;;;48.45;22.85;;;;;;;;;;6146031;23;20078;-83
2024/01/20 07:40:23;;;;;;;45.40;23.63;;;;;;;;;;6144444;23;20520;-83
2024/01/20 07:42:50;;;;;;;42.17;23.52;;;;;;;;;;6169845;23;20359;-83
2024/01/20 07:45:18;;;;;;;46.75;24.13;;;;;;;;;;6122432;23;20108;-82
2024/01/20 07:47:46;;;;;;;45.47;24.17;;;;;;;;;;6168938;23;20021;-84
2024/01/20 07:50:13;;;;;;;47.55;21.88;;;;;;;;;;6119519;23;20303;-84
2024/01/20 07:52:40;;;;;;;42.13;23.90;;;;;;;;;;6117865;23;20453;-83
2024/01/20 07:55:08;;;;;;;42.45;24.17;;;;;;;;;;6122970;23;20013;-83
2024/01/20 07:57:35;;;;;;;46.65;22.58;;;;;;;;;;6144779;23;20029;-83
2024/01/20 08:00:04;;;;;;;44.03;24.15;;;;;;;;;;6121133;23;20017;-83
2024/01/20 08:02:32;;;;;;;43.33;23.60;;;;;;;;;;6121533;23;20381;-83
2024/01/20 08:05:02;;;;;;;43.35;23.10;;;;;;;;;;6121555;23;20032;-83
2024/01/20 08:07:30;;;;;;;46.80;24.33;;;;;;;;;;6145638;23;20021;-83
2024/01/20 08:09:57;;;;;;;49.63;24.25;;;;;;;;;;6143924;23;20020;-83
2024/01/20 08:12:24;;;;;;;43.23;24.70;;;;;;;;;;6145456;23;20013;-83
2024/01/20 08:14:51;;;;;;;44.13;23.13;;;;;;;;;;6143353;23;20013;-83
2024/01/20 08:17:20;;;;;;;41.33;21.00;;;;;;;;;;6172274;23;20021;-83
2024/01/20 08:19:48;;;;;;;44.58;21.45;;;;;;;;;;6142401;23;20021;-83
2024/01/20 08:22:17;;;;;;;47.08;21.75;;;;;;;;;;6170304;23;20028;-83
2024/01/20 08:24:46;;;;;;;42.70;21.63;;;;;;;;;;6167960;23;20069;-83
2024/01/20 08:27:13;;;;;;;43.25;22.13;;;;;;;;;;6146263;23;20088;-83
2024/01/20 08:29:40;;;;;;;39.78;21.90;;;;;;;;;;6167534;23;20053;-83
2024/01/20 08:32:07;;;;;;;43.33;22.88;;;;;;;;;;6171240;23;20016;-83
2024/01/20 08:34:34;;;;;;;38.35;22.55;;;;;;;;;;6145429;23;20454;-83
2024/01/20 08:37:02;;;;;;;36.17;21.20;;;;;;;;;;6172695;23;20044;-83
2024/01/20 08:39:29;;;;;;;41.92;21.10;;;;;;;;;;6173256;23;20116;-83
2024/01/20 08:41:56;;;;;;;42.65;22.40;;;;;;;;;;6170374;23;20024;-83
2024/01/20 08:44:23;;;;;;;45.38;22.58;;;;;;;;;;6172367;23;20017;-83
2024/01/20 08:46:50;;;;;;;40.58;20.83;;;;;;;;;;6145461;23;20092;-83
2024/01/20 08:49:17;;;;;;;39.70;20.67;;;;;;;;;;6147316;23;20048;-83
2024/01/20 08:51:44;;;;;;;39.20;21.88;;;;;;;;;;6169417;23;20118;-83
2024/01/20 08:54:12;;;;;;;41.85;20.45;;;;;;;;;;6174480;23;20021;-83
2024/01/20 08:56:40;;;;;;;38.63;20.58;;;;;;;;;;6175149;23;20021;-83
2024/01/20 08:59:07;;;;;;;38.42;21.17;;;;;;;;;;6176993;23;20036;-83
2024/01/20 09:01:34;;;;;;;41.10;21.95;;;;;;;;;;6175500;23;20016;-83
2024/01/20 09:04:01;;;;;;;41.83;22.08;;;;;;;;;;6174815;23;20099;-83
2024/01/20 09:06:28;;;;;;;38.10;20.90;;;;;;;;;;6175504;23;20060;-83
2024/01/20 09:08:55;;;;;;;40.90;21.65;;;;;;;;;;6123247;23;20548;-83
2024/01/20 09:11:22;;;;;;;34.92;20.23;;;;;;;;;;6174682;23;20543;-83
2024/01/20 09:13:49;;;;;;;38.15;20.83;;;;;;;;;;6123399;23;20017;-83
2024/01/20 09:16:17;;;;;;;42.78;20.48;;;;;;;;;;6127383;23;20020;-83
2024/01/20 09:18:44;;;;;;;44.22;22.42;;;;;;;;;;6174457;23;20521;-83
2024/01/20 09:21:12;;;;;;;44.80;21.17;;;;;;;;;;6147811;23;20032;-83
2024/01/20 09:23:39;;;;;;;40.65;20.83;;;;;;;;;;6119373;23;20039;-83
2024/01/20 09:26:06;;;;;;;39.63;20.00;;;;;;;;;;6147822;23;20032;-83
2024/01/20 09:28:33;;;;;;;44.08;20.98;;;;;;;;;;6123738;23;20019;-83
2024/01/20 09:31:01;;;;;;;36.95;19.80;;;;;;;;;;6172513;23;20017;-83
2024/01/20 09:33:28;;;;;;;40.45;21.42;;;;;;;;;;6172063;23;20020;-83
2024/01/20 09:35:56;;;;;;;36.45;19.42;;;;;;;;;;6147941;23;20044;-83
2024/01/20 09:38:26;;;;;;;45.03;21.27;;;;;;;;;;6123794;23;20028;-83
2024/01/20 09:40:54;;;;;;;36.63;19.17;;;;;;;;;;6144763;23;20276;-83
2024/01/20 09:43:21;;;;;;;38.05;19.00;;;;;;;;;;6168665;23;20104;-83
2024/01/20 09:45:49;;;;;;;35.47;19.52;;;;;;;;;;6121038;23;20043;-83
2024/01/20 09:48:18;;;;;;;34.22;20.90;;;;;;;;;;6145258;23;20080;-83
2024/01/20 09:50:45;;;;;;;36.20;19.92;;;;;;;;;;6118187;23;20021;-83
2024/01/20 09:53:15;;;;;;;35.93;20.00;;;;;;;;;;6117409;23;20749;-83
2024/01/20 09:55:42;;;;;;;42.38;20.35;;;;;;;;;;6167207;23;20417;-83
2024/01/20 09:58:13;;;;;;;33.42;18.63;;;;;;;;;;6123019;23;20021;-83
2024/01/20 10:00:41;;;;;;;40.08;19.60;;;;;;;;;;6169759;23;20346;-83
2024/01/20 10:03:11;;;;;;;38.43;18.67;;;;;;;;;;6168737;23;20024;-83
2024/01/20 10:05:38;;;;;;;34.80;19.60;;;;;;;;;;6167616;23;20263;-83
2024/01/20 10:08:05;;;;;;;31.55;16.65;;;;;;;;;;6159498;23;20032;-84
2024/01/20 10:10:34;;;;;;;35.15;18.15;;;;;;;;;;6167332;23;20013;-83
2024/01/20 10:13:02;;;;;;;29.98;17.15;;;;;;;;;;6122196;23;20013;-82
2024/01/20 10:15:30;;;;;;;33.05;17.52;;;;;;;;;;6173522;23;20052;-82
2024/01/20 10:18:00;;;;;;;36.78;16.85;;;;;;;;;;6170846;23;20032;-82
2024/01/20 10:20:33;;;;;;;33.17;15.07;;;;;;;;;;6170806;23;20048;-83
2024/01/20 10:23:02;;;;;;;32.75;14.98;;;;;;;;;;6145015;23;20055;-83
2024/01/20 10:25:29;;;;;;;32.60;15.07;;;;;;;;;;6144867;23;20032;-82
2024/01/20 10:27:56;;;;;;;34.00;14.50;;;;;;;;;;6142980;23;20025;-83
2024/01/20 10:30:25;;;;;;;29.75;14.07;;;;;;;;;;6171274;23;20073;-83
2024/01/20 10:32:52;;;;;;;29.25;14.85;;;;;;;;;;6170433;23;20065;-83
2024/01/20 10:35:19;;;;;;;26.25;13.88;;;;;;;;;;6171885;23;20045;-83
2024/01/20 10:37:49;;;;;;;28.98;15.60;;;;;;;;;;6168477;23;20099;-83
2024/01/20 10:40:16;;;;;;;27.55;14.73;;;;;;;;;;6146830;23;20029;-83
2024/01/20 10:42:46;;;;;;;29.77;14.88;;;;;;;;;;6171781;23;20346;-82
2024/01/20 10:45:17;;;;;;;27.73;12.77;;;;;;;;;;6146255;23;20021;-84
2024/01/20 10:48:00;;;;;;;30.73;13.63;;;;;;;;;;6167829;23;20032;-82
2024/01/20 10:50:27;;;;;;;26.08;12.98;;;;;;;;;;6172524;23;20044;-83
2024/01/20 10:52:54;;;;;;;28.98;13.10;;;;;;;;;;6164858;23;20384;-82
2024/01/20 10:55:21;;;;;;;27.15;13.85;;;;;;;;;;6143993;23;20342;-83
2024/01/20 10:57:50;;;;;;;25.73;13.40;;;;;;;;;;6115585;23;20028;-83
2024/01/20 11:00:18;;;;;;;26.48;12.93;;;;;;;;;;6145111;23;20024;-83
2024/01/20 11:02:45;;;;;;;26.48;12.18;;;;;;;;;;6144245;23;20028;-82
2024/01/20 11:05:21;;;;;;;28.30;12.35;;;;;;;;;;6121305;23;20071;-83
2024/01/20 11:08:04;;;;;;;23.45;12.55;;;;;;;;;;6142070;23;20778;-83
2024/01/20 11:10:31;;;;;;;22.98;13.18;;;;;;;;;;6145597;23;20021;-83
2024/01/20 11:13:01;;;;;;;24.00;12.38;;;;;;;;;;6143726;23;20466;-82
2024/01/20 11:15:33;;;;;;;25.70;12.57;;;;;;;;;;6122694;23;20623;-83
2024/01/20 11:18:01;;;;;;;23.77;13.05;;;;;;;;;;6120581;23;20027;-83
2024/01/20 11:20:30;;;;;;;27.50;12.43;;;;;;;;;;6120968;23;20020;-84
2024/01/20 11:22:57;;;;;;;27.73;14.05;;;;;;;;;;6147520;23;20402;-83
2024/01/20 11:25:24;;;;;;;24.08;13.25;;;;;;;;;;6171117;23;20020;-83
2024/01/20 11:27:54;;;;;;;25.83;12.40;;;;;;;;;;6166491;23;20039;-83
2024/01/20 11:30:30;;;;;;;22.73;12.27;;;;;;;;;;6172999;23;20351;-83
2024/01/20 11:32:57;;;;;;;28.05;12.00;;;;;;;;;;6143212;23;20013;-83
2024/01/20 11:35:26;;;;;;;21.67;11.88;;;;;;;;;;6170389;23;20020;-83
2024/01/20 11:37:54;;;;;;;;;;;;;;;;;;6143954;23;20017;-83
2024/01/20 11:40:21;;;;;;;27.52;14.10;;;;;;;;;;6171043;23;19920;-84
2024/01/20 11:42:49;;;;;;;28.58;14.18;;;;;;;;;;6116853;23;20720;-83
2024/01/20 11:45:17;;;;;;;25.30;13.13;;;;;;;;;;6169089;23;20017;-83
2024/01/20 11:47:44;;;;;;;23.35;12.05;;;;;;;;;;6162379;23;20127;-83
2024/01/20 11:50:15;;;;;;;25.05;12.95;;;;;;;;;;6145558;23;20028;-83
2024/01/20 11:52:42;;;;;;;28.10;13.30;;;;;;;;;;6119025;23;20418;-83
2024/01/20 11:55:21;;;;;;;27.38;11.52;;;;;;;;;;6124072;23;20021;-83
2024/01/20 11:57:51;;;;;;;26.45;12.43;;;;;;;;;;6123400;23;20024;-83
2024/01/20 12:00:19;;;;;;;26.55;11.98;;;;;;;;;;6151342;23;20025;-83
2024/01/20 12:02:46;;;;;;;25.35;12.68;;;;;;;;;;6123046;23;20024;-83
2024/01/20 12:05:15;;;;;;;20.77;11.68;;;;;;;;;;6150710;23;20100;-83
2024/01/20 12:07:42;;;;;;;27.50;13.27;;;;;;;;;;6148237;23;20024;-83
2024/01/20 12:10:12;;;;;;;26.40;13.10;;;;;;;;;;6127028;23;20156;-83
2024/01/20 12:12:39;;;;;;;25.63;13.07;;;;;;;;;;6173063;23;20032;-83
2024/01/20 12:15:07;;;;;;;24.70;12.73;;;;;;;;;;6150382;23;20051;-83
2024/01/20 12:17:40;;;;;;;30.23;13.95;;;;;;;;;;6124726;23;20024;-83
2024/01/20 12:20:13;;;;;;;25.63;14.18;;;;;;;;;;6127173;23;20057;-83
2024/01/20 12:22:46;;;;;;;28.15;13.35;;;;;;;;;;6126277;23;20083;-83
2024/01/20 12:25:17;;;;;;;27.63;12.88;;;;;;;;;;6125164;23;20024;-83
2024/01/20 12:27:47;;;;;;;26.70;13.93;;;;;;;;;;6122530;23;20624;-83
2024/01/20 12:30:18;;;;;;;32.17;13.45;;;;;;;;;;6151448;23;20052;-83
2024/01/20 12:32:46;;;;;;;25.02;12.45;;;;;;;;;;6122399;23;20017;-83
2024/01/20 12:35:13;;;;;;;24.17;11.95;;;;;;;;;;6127704;23;20095;-83
2024/01/20 12:37:57;;;;;;;26.08;13.00;;;;;;;;;;6127038;23;20013;-83
2024/01/20 12:40:24;;;;;;;24.88;13.02;;;;;;;;;;6125556;23;20057;-83
2024/01/20 12:42:58;;;;;;;24.02;11.68;;;;;;;;;;6148152;23;20017;-83
2024/01/20 12:45:25;;;;;;;25.13;11.93;;;;;;;;;;6125902;23;20020;-83
2024/01/20 12:47:52;;;;;;;22.15;12.38;;;;;;;;;;6172916;23;20644;-83
2024/01/20 12:50:22;;;;;;;25.58;13.40;;;;;;;;;;6124970;23;20047;-83
2024/01/20 12:52:50;;;;;;;25.75;13.23;;;;;;;;;;6146315;23;20017;-83
2024/01/20 12:55:18;;;;;;;23.38;12.10;;;;;;;;;;6148375;23;20013;-83
2024/01/20 12:57:46;;;;;;;26.27;12.63;;;;;;;;;;6123570;23;20065;-83
2024/01/20 13:00:26;;;;;;;;;;;;;;;;;;;;;
2024/01/20 13:02:56;;;;;;;22.02;12.65;;;;;;;;;;6150295;23;20391;-84
2024/01/20 13:05:26;;;;;;;24.92;12.63;;;;;;;;;;6126012;23;20060;-83
2024/01/20 13:07:56;;;;;;;25.13;12.73;;;;;;;;;;6147986;23;20029;-83
2024/01/20 13:10:34;;;;;;;22.65;12.52;;;;;;;;;;6125206;23;20021;-84
2024/01/20 13:13:04;;;;;;;23.38;11.18;;;;;;;;;;6150999;23;20009;-84
2024/01/20 13:15:33;;;;;;;26.42;12.10;;;;;;;;;;6122422;23;20450;-84
2024/01/20 13:18:13;;;;;;;22.52;11.93;;;;;;;;;;6125654;23;20016;-83
2024/01/20 13:20:44;;;;;;;23.92;12.93;;;;;;;;;;6122959;23;20031;-83
2024/01/20 13:23:11;;;;;;;20.38;11.93;;;;;;;;;;6148847;23;20021;-84
2024/01/20 13:28:41;;;;;;;21.02;11.32;;;;;;;;;;6138652;23;20024;-84
2024/01/20 13:31:23;;;;;;;24.33;11.27;;;;;;;;;;6172765;23;20076;-84
2024/01/20 13:34:10;;;;;;;24.58;12.65;;;;;;;;;;6145941;23;20021;-84
2024/01/20 13:36:40;;;;;;;22.25;12.13;;;;;;;;;;6122228;23;20023;-84
2024/01/20 13:39:08;;;;;;;24.10;12.48;;;;;;;;;;6124389;23;20021;-83
2024/01/20 13:41:34;;;;;;;24.42;11.82;;;;;;;;;;6144354;23;20029;-84
2024/01/20 13:44:02;;;;;;;18.20;10.52;;;;;;;;;;6123853;23;20401;-84
2024/01/20 13:46:30;;;;;;;21.60;11.45;;;;;;;;;;6122965;23;20100;-84
2024/01/20 13:48:57;;;;;;;20.30;11.00;;;;;;;;;;6122034;23;20025;-85
2024/01/20 13:51:31;;;;;;;21.15;11.68;;;;;;;;;;6148442;23;20021;-85
2024/01/20 13:54:13;;;;;;;19.92;10.15;;;;;;;;;;6151429;23;20020;-85
2024/01/20 13:56:43;;;;;;;20.15;10.05;;;;;;;;;;6121756;23;20092;-85
2024/01/20 13:59:16;;;;;;;23.92;11.80;;;;;;;;;;6172393;23;20055;-85
2024/01/20 14:01:47;;;;;;;22.00;11.48;;;;;;;;;;6147068;23;20021;-86
2024/01/20 14:04:15;;;;;;;18.83;10.02;;;;;;;;;;6123802;23;20024;-86
2024/01/20 14:07:03;;;;;;;;;;;;;;;;;;;;;
2024/01/20 14:10:06;;;;;;;22.45;10.63;;;;;;;;;;6169732;23;20076;-87
2024/01/20 14:12:54;;;;;;;17.67;10.00;;;;;;;;;;6149484;23;20028;-85
2024/01/20 14:15:40;;;;;;;;;;;;;;;;;;;;;
2024/01/20 14:18:24;;;;;;;21.63;10.93;;;;;;;;;;6147519;23;20448;-86
2024/01/20 14:21:03;;;;;;;20.55;11.07;;;;;;;;;;6142971;23;20445;-85
2024/01/20 14:23:48;;;;;;;24.58;11.10;;;;;;;;;;6097152;23;20021;-85
2024/01/20 14:26:30;;;;;;;22.35;10.15;;;;;;;;;;6121837;23;20647;-85
2024/01/20 14:29:21;;;;;;;21.48;11.00;;;;;;;;;;6110236;23;20175;-85
2024/01/20 14:32:09;;;;;;;23.27;10.80;;;;;;;;;;6095123;23;20025;-86